createdAt,value
2016-09-20T00:00:00.831Z,17.5
2016-09-20T00:01:01.082Z,17.48
2016-09-20T00:02:01.152Z,17.4
2016-09-20T00:03:01.001Z,17.44
2016-09-20T00:04:00.940Z,17.48
2016-09-20T00:05:01.112Z,17.41
2016-09-20T00:06:00.864Z,17.48
2016-09-20T00:07:00.812Z,17.33
2016-09-20T00:08:00.451Z,17.5
2016-09-20T00:09:00.712Z,17.62
2016-09-20T00:10:00.358Z,17.57
2016-09-20T00:11:00.318Z,17.59
2016-09-20T00:12:00.463Z,17.44
2016-09-20T00:13:00.419Z,17.43
2016-09-20T00:14:00.159Z,17.5
2016-09-20T00:15:00.431Z,17.5
2016-09-20T00:16:00.369Z,17.47
2016-09-20T00:17:00.337Z,17.46
2016-09-20T00:18:00.280Z,17.43
2016-09-20T00:19:00.134Z,17.41
2016-09-20T00:19:59.776Z,17.41
2016-09-20T00:21:00.148Z,17.38
2016-09-20T00:21:59.495Z,17.36
2016-09-20T00:22:59.441Z,17.38
2016-09-20T00:24:00.007Z,17.38
2016-09-20T00:25:00.140Z,17.33
2016-09-20T00:25:59.910Z,17.47
2016-09-20T00:26:59.861Z,17.47
2016-09-20T00:27:59.816Z,17.46
2016-09-20T00:28:59.155Z,17.46
2016-09-20T00:29:59.721Z,17.46
2016-09-20T00:30:59.362Z,17.38
2016-09-20T00:31:59.603Z,17.33
2016-09-20T00:32:59.288Z,17.38
2016-09-20T00:33:59.230Z,17.4
2016-09-20T00:34:59.173Z,17.29
2016-09-20T00:35:59.132Z,17.22
2016-09-20T00:36:59.093Z,17.1
2016-09-20T00:37:59.332Z,17
2016-09-20T00:38:58.673Z,17.06
2016-09-20T00:39:58.870Z,17.03
2016-09-20T00:40:59.214Z,17.11
2016-09-20T00:41:58.847Z,17.14
2016-09-20T00:42:59.305Z,17.15
2016-09-20T00:43:59.062Z,17.11
2016-09-20T00:44:59.223Z,17.14
2016-09-20T00:45:59.159Z,17.11
2016-09-20T00:46:58.924Z,17.13
2016-09-20T00:47:58.867Z,17.04
2016-09-20T00:48:59.021Z,16.99
2016-09-20T00:49:58.997Z,16.99
2016-09-20T00:50:58.608Z,16.99
2016-09-20T00:51:58.369Z,16.99
2016-09-20T00:52:58.516Z,17.08
2016-09-20T00:53:58.585Z,17.14
2016-09-20T00:54:58.212Z,17.15
2016-09-20T00:55:58.381Z,17.08
2016-09-20T00:56:57.822Z,16.96
2016-09-20T00:57:58.394Z,16.89
2016-09-20T00:58:58.342Z,16.81
2016-09-20T00:59:57.873Z,16.85
2016-09-20T01:00:58.240Z,16.88
2016-09-20T01:01:58.396Z,16.95
2016-09-20T01:02:57.832Z,17.03
2016-09-20T01:03:58.108Z,17
2016-09-20T01:04:57.745Z,16.93
2016-09-20T01:05:58.417Z,16.81
2016-09-20T01:06:57.640Z,16.88
2016-09-20T01:07:57.980Z,16.92
2016-09-20T01:08:57.556Z,17.03
2016-09-20T01:09:57.817Z,17.04
2016-09-20T01:10:57.768Z,17.03
2016-09-20T01:11:57.723Z,17.03
2016-09-20T01:12:57.720Z,17
2016-09-20T01:13:57.313Z,17
2016-09-20T01:14:57.826Z,16.99
2016-09-20T01:15:57.116Z,17.08
2016-09-20T01:16:57.487Z,17
2016-09-20T01:17:57.436Z,16.98
2016-09-20T01:18:57.065Z,16.9
2016-09-20T01:19:57.351Z,16.83
2016-09-20T01:20:57.276Z,16.86
2016-09-20T01:21:56.921Z,16.86
2016-09-20T01:22:57.396Z,16.86
2016-09-20T01:23:57.033Z,16.83
2016-09-20T01:24:57.100Z,16.71
2016-09-20T01:25:57.268Z,16.67
2016-09-20T01:26:56.995Z,16.67
2016-09-20T01:27:56.946Z,16.65
2016-09-20T01:28:56.613Z,16.74
2016-09-20T01:29:56.868Z,16.73
2016-09-20T01:30:56.510Z,16.88
2016-09-20T01:31:56.859Z,16.7
2016-09-20T01:32:56.718Z,16.8
2016-09-20T01:33:56.870Z,16.74
2016-09-20T01:34:56.299Z,16.71
2016-09-20T01:35:56.261Z,16.71
2016-09-20T01:36:56.426Z,16.71
2016-09-20T01:37:55.863Z,16.71
2016-09-20T01:38:56.469Z,16.83
2016-09-20T01:39:56.620Z,16.83
2016-09-20T01:40:56.408Z,16.89
2016-09-20T01:41:55.985Z,16.98
2016-09-20T01:42:55.924Z,16.99
2016-09-20T01:43:55.885Z,16.89
2016-09-20T01:44:55.826Z,16.83
2016-09-20T01:45:55.792Z,16.83
2016-09-20T01:46:55.796Z,16.86
2016-09-20T01:47:56.060Z,16.83
2016-09-20T01:48:55.645Z,16.8
2016-09-20T01:49:55.284Z,16.85
2016-09-20T01:50:55.842Z,16.81
2016-09-20T01:51:55.505Z,16.96
2016-09-20T01:52:55.450Z,16.88
2016-09-20T01:53:55.741Z,16.9
2016-09-20T01:54:55.352Z,16.88
2016-09-20T01:55:55.808Z,16.83
2016-09-20T01:56:55.569Z,16.81
2016-09-20T01:57:55.559Z,16.8
2016-09-20T01:58:55.537Z,16.78
2016-09-20T01:59:55.114Z,16.73
2016-09-20T02:00:55.061Z,16.74
2016-09-20T02:01:55.327Z,16.68
2016-09-20T02:02:54.968Z,16.7
2016-09-20T02:03:54.946Z,16.58
2016-09-20T02:04:54.562Z,16.44
2016-09-20T02:05:55.020Z,16.44
2016-09-20T02:06:54.989Z,16.48
2016-09-20T02:07:55.039Z,16.48
2016-09-20T02:08:54.696Z,16.37
2016-09-20T02:09:54.641Z,16.48
2016-09-20T02:10:54.893Z,16.41
2016-09-20T02:11:54.843Z,16.42
2016-09-20T02:12:54.498Z,16.48
2016-09-20T02:13:54.437Z,16.59
2016-09-20T02:14:54.716Z,16.58
2016-09-20T02:15:54.856Z,16.38
2016-09-20T02:16:54.300Z,16.42
2016-09-20T02:17:54.561Z,16.38
2016-09-20T02:18:54.201Z,16.25
2016-09-20T02:19:54.485Z,16.26
2016-09-20T02:20:53.864Z,16.34
2016-09-20T02:21:54.364Z,16.4
2016-09-20T02:22:54.389Z,16.45
2016-09-20T02:23:54.264Z,16.56
2016-09-20T02:24:54.112Z,16.6
2016-09-20T02:25:54.181Z,16.75
2016-09-20T02:26:54.053Z,16.83
2016-09-20T02:27:53.783Z,16.85
2016-09-20T02:28:54.027Z,16.68
2016-09-20T02:29:54.022Z,16.63
2016-09-20T02:30:53.651Z,16.58
2016-09-20T02:31:53.899Z,16.45
2016-09-20T02:32:54.083Z,16.48
2016-09-20T02:33:53.815Z,16.55
2016-09-20T02:34:53.747Z,16.58
2016-09-20T02:35:53.390Z,16.58
2016-09-20T02:36:53.658Z,16.65
2016-09-20T02:37:53.304Z,16.62
2016-09-20T02:38:53.754Z,16.65
2016-09-20T02:39:53.187Z,16.62
2016-09-20T02:40:53.457Z,16.62
2016-09-20T02:41:53.122Z,16.63
2016-09-20T02:42:53.057Z,16.7
2016-09-20T02:43:53.002Z,16.73
2016-09-20T02:44:53.268Z,16.71
2016-09-20T02:45:53.223Z,16.73
2016-09-20T02:46:53.179Z,16.71
2016-09-20T02:47:52.815Z,16.74
2016-09-20T02:48:52.774Z,16.68
2016-09-20T02:49:52.724Z,16.62
2016-09-20T02:50:52.675Z,16.56
2016-09-20T02:51:52.344Z,16.52
2016-09-20T02:52:52.584Z,16.52
2016-09-20T02:53:52.860Z,16.48
2016-09-20T02:54:52.801Z,16.4
2016-09-20T02:55:52.938Z,16.55
2016-09-20T02:56:52.593Z,16.53
2016-09-20T02:57:52.342Z,16.56
2016-09-20T02:58:52.498Z,16.65
2016-09-20T02:59:52.541Z,16.74
2016-09-20T03:00:52.199Z,16.74
2016-09-20T03:01:52.469Z,16.74
2016-09-20T03:02:52.396Z,16.63
2016-09-20T03:03:52.049Z,16.6
2016-09-20T03:04:52.309Z,16.58
2016-09-20T03:05:51.946Z,16.6
2016-09-20T03:06:52.208Z,16.58
2016-09-20T03:07:52.167Z,16.56
2016-09-20T03:08:52.135Z,16.59
2016-09-20T03:09:51.768Z,16.6
2016-09-20T03:10:52.217Z,16.63
2016-09-20T03:11:51.437Z,16.65
2016-09-20T03:12:52.017Z,16.63
2016-09-20T03:13:51.875Z,16.73
2016-09-20T03:14:51.836Z,16.73
2016-09-20T03:15:51.780Z,16.7
2016-09-20T03:16:51.728Z,16.65
2016-09-20T03:17:51.386Z,16.71
2016-09-20T03:18:51.651Z,16.65
2016-09-20T03:19:51.281Z,16.49
2016-09-20T03:20:51.831Z,16.5
2016-09-20T03:21:51.183Z,16.44
2016-09-20T03:22:51.190Z,16.45
2016-09-20T03:23:51.152Z,16.53
2016-09-20T03:24:51.392Z,16.49
2016-09-20T03:25:50.695Z,16.38
2016-09-20T03:26:51.247Z,16.44
2016-09-20T03:27:51.243Z,16.44
2016-09-20T03:28:51.171Z,16.44
2016-09-20T03:29:51.358Z,16.38
2016-09-20T03:30:50.770Z,16.35
2016-09-20T03:31:51.216Z,16.31
2016-09-20T03:32:50.997Z,16.34
2016-09-20T03:33:50.300Z,16.31
2016-09-20T03:34:50.889Z,16.22
2016-09-20T03:35:50.519Z,16.12
2016-09-20T03:36:50.479Z,16.09
2016-09-20T03:37:50.648Z,16.11
2016-09-20T03:38:50.387Z,16.14
2016-09-20T03:39:50.325Z,16.04
2016-09-20T03:40:50.287Z,16.07
2016-09-20T03:41:50.557Z,16.16
2016-09-20T03:42:50.484Z,16.23
2016-09-20T03:43:50.142Z,16.34
2016-09-20T03:44:50.396Z,16.31
2016-09-20T03:45:50.043Z,16.25
2016-09-20T03:46:49.993Z,16.31
2016-09-20T03:47:49.627Z,16.27
2016-09-20T03:48:49.891Z,16.37
2016-09-20T03:49:49.841Z,16.23
2016-09-20T03:50:50.507Z,16.35
2016-09-20T03:51:49.818Z,16.27
2016-09-20T03:52:49.737Z,16.42
2016-09-20T03:53:50.168Z,16.41
2016-09-20T03:54:49.925Z,16.45
2016-09-20T03:55:49.550Z,16.5
2016-09-20T03:56:49.823Z,16.49
2016-09-20T03:57:49.776Z,16.5
2016-09-20T03:58:49.408Z,16.45
2016-09-20T03:59:49.568Z,16.38
2016-09-20T04:00:49.643Z,16.37
2016-09-20T04:01:49.570Z,16.35
2016-09-20T04:02:49.734Z,16.35
2016-09-20T04:03:49.555Z,16.27
2016-09-20T04:04:49.441Z,16.27
2016-09-20T04:05:49.395Z,16.35
2016-09-20T04:06:49.343Z,16.38
2016-09-20T04:07:48.980Z,16.35
2016-09-20T04:08:49.226Z,16.27
2016-09-20T04:09:49.394Z,16.42
2016-09-20T04:10:48.832Z,16.37
2016-09-20T04:11:48.500Z,16.35
2016-09-20T04:12:48.768Z,16.4
2016-09-20T04:13:49.009Z,16.44
2016-09-20T04:14:48.951Z,16.52
2016-09-20T04:15:48.681Z,16.55
2016-09-20T04:16:48.860Z,16.59
2016-09-20T04:17:48.802Z,16.63
2016-09-20T04:18:48.462Z,16.63
2016-09-20T04:19:48.097Z,16.62
2016-09-20T04:20:48.689Z,16.58
2016-09-20T04:21:48.000Z,16.58
2016-09-20T04:22:48.460Z,16.6
2016-09-20T04:23:48.209Z,16.58
2016-09-20T04:24:47.870Z,16.62
2016-09-20T04:25:48.435Z,16.55
2016-09-20T04:26:47.761Z,16.44
2016-09-20T04:27:48.043Z,16.44
2016-09-20T04:28:48.294Z,16.44
2016-09-20T04:29:47.921Z,16.52
2016-09-20T04:30:48.179Z,16.56
2016-09-20T04:31:48.133Z,16.58
2016-09-20T04:32:48.083Z,16.52
2016-09-20T04:33:47.751Z,16.55
2016-09-20T04:34:47.683Z,16.62
2016-09-20T04:35:48.141Z,16.63
2016-09-20T04:36:48.114Z,16.68
2016-09-20T04:37:47.875Z,16.7
2016-09-20T04:38:47.794Z,16.62
2016-09-20T04:39:47.740Z,16.65
2016-09-20T04:40:47.701Z,16.52
2016-09-20T04:41:47.365Z,16.55
2016-09-20T04:42:47.612Z,16.55
2016-09-20T04:43:47.559Z,16.41
2016-09-20T04:44:47.513Z,16.48
2016-09-20T04:45:47.463Z,16.41
2016-09-20T04:46:47.113Z,16.45
2016-09-20T04:47:47.561Z,16.5
2016-09-20T04:48:47.331Z,16.52
2016-09-20T04:49:46.981Z,16.56
2016-09-20T04:50:47.131Z,16.59
2016-09-20T04:51:46.568Z,16.59
2016-09-20T04:52:47.129Z,16.45
2016-09-20T04:53:47.100Z,16.35
2016-09-20T04:54:47.238Z,16.23
2016-09-20T04:55:46.997Z,16.33
2016-09-20T04:56:46.838Z,16.18
2016-09-20T04:57:46.787Z,16.15
2016-09-20T04:58:46.571Z,16.15
2016-09-20T04:59:46.793Z,16.25
2016-09-20T05:00:46.997Z,16.06
2016-09-20T05:01:46.396Z,16.06
2016-09-20T05:02:46.652Z,16.2
2016-09-20T05:03:46.303Z,16.11
2016-09-20T05:04:46.245Z,16.01
2016-09-20T05:05:46.516Z,16.12
2016-09-20T05:06:46.675Z,16.18
2016-09-20T05:07:46.122Z,16.16
2016-09-20T05:08:46.457Z,16.27
2016-09-20T05:09:46.529Z,16.27
2016-09-20T05:10:46.299Z,16.25
2016-09-20T05:11:46.253Z,16.3
2016-09-20T05:12:46.178Z,16.33
2016-09-20T05:13:46.330Z,16.26
2016-09-20T05:14:45.784Z,16.41
2016-09-20T05:15:46.039Z,16.26
2016-09-20T05:16:45.992Z,16.33
2016-09-20T05:17:45.304Z,16.26
2016-09-20T05:18:45.568Z,16.33
2016-09-20T05:19:45.841Z,16.37
2016-09-20T05:20:45.839Z,16.34
2016-09-20T05:21:45.430Z,16.35
2016-09-20T05:22:45.387Z,16.41
2016-09-20T05:23:45.840Z,16.34
2016-09-20T05:24:45.289Z,16.4
2016-09-20T05:25:45.541Z,16.48
2016-09-20T05:26:45.178Z,16.55
2016-09-20T05:27:45.158Z,16.6
2016-09-20T05:28:45.816Z,16.62
2016-09-20T05:29:45.359Z,16.68
2016-09-20T05:30:45.317Z,16.68
2016-09-20T05:31:45.273Z,16.67
2016-09-20T05:32:45.459Z,16.63
2016-09-20T05:33:44.867Z,16.58
2016-09-20T05:34:45.097Z,16.48
2016-09-20T05:35:44.748Z,16.55
2016-09-20T05:36:44.408Z,16.52
2016-09-20T05:37:45.372Z,16.62
2016-09-20T05:38:45.119Z,16.6
2016-09-20T05:39:44.554Z,16.62
2016-09-20T05:40:44.218Z,16.74
2016-09-20T05:41:44.780Z,16.62
2016-09-20T05:42:44.713Z,16.6
2016-09-20T05:43:44.684Z,16.55
2016-09-20T05:44:44.649Z,16.49
2016-09-20T05:45:44.283Z,16.49
2016-09-20T05:46:44.739Z,16.56
2016-09-20T05:47:44.485Z,16.6
2016-09-20T05:48:44.450Z,16.73
2016-09-20T05:49:44.613Z,16.71
2016-09-20T05:50:44.370Z,16.7
2016-09-20T05:51:44.491Z,16.59
2016-09-20T05:52:44.261Z,16.63
2016-09-20T05:53:44.410Z,16.6
2016-09-20T05:54:44.161Z,16.41
2016-09-20T05:55:44.315Z,16.48
2016-09-20T05:56:43.747Z,16.33
2016-09-20T05:57:44.030Z,16.26
2016-09-20T05:58:43.662Z,16.37
2016-09-20T05:59:44.167Z,16.44
2016-09-20T06:00:44.078Z,16.42
2016-09-20T06:01:43.210Z,16.44
2016-09-20T06:02:43.984Z,16.41
2016-09-20T06:03:43.727Z,16.48
2016-09-20T06:04:43.687Z,16.49
2016-09-20T06:05:43.542Z,16.56
2016-09-20T06:06:43.271Z,16.6
2016-09-20T06:07:43.633Z,16.7
2016-09-20T06:08:43.688Z,16.6
2016-09-20T06:09:43.442Z,16.59
2016-09-20T06:10:43.072Z,16.41
2016-09-20T06:11:43.040Z,16.5
2016-09-20T06:12:43.292Z,16.48
2016-09-20T06:13:43.240Z,16.44
2016-09-20T06:14:43.212Z,16.55
2016-09-20T06:15:43.365Z,16.73
2016-09-20T06:16:43.296Z,16.71
2016-09-20T06:17:43.054Z,16.68
2016-09-20T06:18:43.010Z,16.77
2016-09-20T06:19:42.657Z,16.85
2016-09-20T06:20:42.798Z,16.81
2016-09-20T06:21:42.883Z,16.81
2016-09-20T06:22:42.749Z,16.8
2016-09-20T06:23:42.774Z,16.7
2016-09-20T06:24:42.728Z,16.85
2016-09-20T06:25:42.681Z,16.78
2016-09-20T06:26:42.852Z,16.81
2016-09-20T06:27:42.279Z,16.71
2016-09-20T06:28:42.780Z,16.7
2016-09-20T06:29:42.497Z,16.73
2016-09-20T06:30:42.116Z,16.68
2016-09-20T06:31:42.461Z,16.63
2016-09-20T06:32:42.808Z,16.65
2016-09-20T06:33:42.356Z,16.65
2016-09-20T06:34:42.447Z,16.59
2016-09-20T06:35:42.188Z,16.59
2016-09-20T06:36:42.193Z,16.62
2016-09-20T06:37:42.098Z,16.62
2016-09-20T06:38:41.763Z,16.67
2016-09-20T06:39:41.756Z,16.74
2016-09-20T06:40:42.273Z,16.8
2016-09-20T06:41:41.596Z,16.86
2016-09-20T06:42:41.882Z,16.71
2016-09-20T06:43:41.531Z,16.8
2016-09-20T06:44:41.483Z,16.7
2016-09-20T06:45:41.706Z,16.83
2016-09-20T06:46:41.387Z,16.7
2016-09-20T06:47:41.643Z,16.88
2016-09-20T06:48:41.789Z,16.86
2016-09-20T06:49:41.265Z,16.77
2016-09-20T06:50:41.561Z,16.89
2016-09-20T06:51:41.034Z,16.9
2016-09-20T06:52:41.632Z,16.83
2016-09-20T06:53:41.019Z,16.83
2016-09-20T06:54:41.304Z,16.95
2016-09-20T06:55:40.962Z,17
2016-09-20T06:56:41.100Z,17
2016-09-20T06:57:41.061Z,16.92
2016-09-20T06:58:41.109Z,16.85
2016-09-20T06:59:40.944Z,16.89
2016-09-20T07:00:41.014Z,16.89
2016-09-20T07:01:40.969Z,16.81
2016-09-20T07:02:40.619Z,16.93
2016-09-20T07:03:40.880Z,16.83
2016-09-20T07:04:40.528Z,16.81
2016-09-20T07:05:40.897Z,16.88
2016-09-20T07:06:40.425Z,17
2016-09-20T07:07:40.368Z,17.04
2016-09-20T07:08:40.338Z,16.93
2016-09-20T07:09:40.603Z,16.98
2016-09-20T07:10:40.592Z,16.9
2016-09-20T07:11:40.197Z,16.89
2016-09-20T07:12:40.342Z,16.88
2016-09-20T07:13:40.386Z,17
2016-09-20T07:14:40.366Z,16.99
2016-09-20T07:15:40.501Z,17.04
2016-09-20T07:16:39.953Z,17.08
2016-09-20T07:17:39.928Z,17.06
2016-09-20T07:18:40.155Z,17.03
2016-09-20T07:19:40.216Z,17.04
2016-09-20T07:20:40.085Z,16.98
2016-09-20T07:21:39.741Z,17.1
2016-09-20T07:22:40.001Z,17.07
2016-09-20T07:23:39.634Z,17.08
2016-09-20T07:24:40.161Z,17.14
2016-09-20T07:25:39.667Z,17.13
2016-09-20T07:26:39.905Z,17.25
2016-09-20T07:27:39.769Z,17.25
2016-09-20T07:28:39.687Z,17.25
2016-09-20T07:29:39.654Z,17.18
2016-09-20T07:30:39.637Z,17.18
2016-09-20T07:31:39.563Z,17.13
2016-09-20T07:32:39.199Z,17.23
2016-09-20T07:33:39.508Z,17.3
2016-09-20T07:34:39.091Z,17.3
2016-09-20T07:35:39.081Z,17.23
2016-09-20T07:36:39.010Z,17.28
2016-09-20T07:37:39.470Z,17.26
2016-09-20T07:38:39.690Z,17.22
2016-09-20T07:39:39.176Z,17.28
2016-09-20T07:40:39.175Z,17.23
2016-09-20T07:41:39.190Z,17.13
2016-09-20T07:42:39.073Z,17.15
2016-09-20T07:43:39.184Z,17.14
2016-09-20T07:44:38.932Z,17.17
2016-09-20T07:45:39.078Z,17.26
2016-09-20T07:46:38.765Z,17.28
2016-09-20T07:47:38.483Z,17.25
2016-09-20T07:48:38.772Z,17.22
2016-09-20T07:49:38.147Z,17.2
2016-09-20T07:50:38.372Z,17.13
2016-09-20T07:51:38.290Z,17.23
2016-09-20T07:52:38.564Z,17.25
2016-09-20T07:53:38.552Z,17.26
2016-09-20T07:54:38.446Z,17.3
2016-09-20T07:55:38.330Z,17.28
2016-09-20T07:56:38.382Z,17.43
2016-09-20T07:57:38.331Z,17.41
2016-09-20T07:58:38.311Z,17.47
2016-09-20T07:59:37.620Z,17.51
2016-09-20T08:00:38.209Z,17.51
2016-09-20T08:01:38.188Z,17.51
2016-09-20T08:02:38.277Z,17.4
2016-09-20T08:03:38.045Z,17.48
2016-09-20T08:04:37.735Z,17.51
2016-09-20T08:05:37.947Z,17.41
2016-09-20T08:06:38.019Z,17.5
2016-09-20T08:07:38.049Z,17.46
2016-09-20T08:08:37.813Z,17.54
2016-09-20T08:09:37.847Z,17.53
2016-09-20T08:10:37.715Z,17.59
2016-09-20T08:11:37.865Z,17.48
2016-09-20T08:12:37.319Z,17.62
2016-09-20T08:13:37.332Z,17.63
2016-09-20T08:14:37.544Z,17.63
2016-09-20T08:15:37.469Z,17.66
2016-09-20T08:16:37.204Z,17.67
2016-09-20T08:17:37.572Z,17.66
2016-09-20T08:18:37.322Z,17.59
2016-09-20T08:19:37.323Z,17.48
2016-09-20T08:20:37.529Z,17.47
2016-09-20T08:21:36.883Z,17.44
2016-09-20T08:22:37.162Z,17.46
2016-09-20T08:23:37.106Z,17.43
2016-09-20T08:24:36.774Z,17.54
2016-09-20T08:25:37.659Z,17.57
2016-09-20T08:26:37.709Z,17.62
2016-09-20T08:27:38.525Z,17.73
2016-09-20T08:28:36.855Z,17.85
2016-09-20T08:29:36.821Z,17.85
2016-09-20T08:30:38.229Z,17.74
2016-09-20T08:31:36.434Z,17.81
2016-09-20T08:32:36.450Z,17.87
2016-09-20T08:33:36.855Z,17.78
2016-09-20T08:34:36.027Z,17.79
2016-09-20T08:35:36.225Z,17.78
2016-09-20T08:36:36.612Z,17.79
2016-09-20T08:37:36.350Z,17.76
2016-09-20T08:38:36.133Z,17.79
2016-09-20T08:39:36.354Z,17.76
2016-09-20T08:40:36.324Z,17.82
2016-09-20T08:41:36.248Z,17.87
2016-09-20T08:42:36.201Z,17.84
2016-09-20T08:43:36.193Z,17.82
2016-09-20T08:44:36.532Z,17.82
2016-09-20T08:45:36.069Z,17.99
2016-09-20T08:46:36.314Z,17.88
2016-09-20T08:47:35.945Z,17.82
2016-09-20T08:48:36.169Z,17.87
2016-09-20T08:49:36.278Z,17.92
2016-09-20T08:50:35.722Z,17.82
2016-09-20T08:51:50.197Z,17.97
2016-09-20T08:52:35.977Z,18.03
2016-09-20T08:53:36.139Z,18
2016-09-20T08:54:36.111Z,18.1
2016-09-20T08:55:35.607Z,18.07
2016-09-20T08:56:35.258Z,18.02
2016-09-20T08:57:35.760Z,18.04
2016-09-20T08:58:35.486Z,18
2016-09-20T08:59:34.812Z,18.02
2016-09-20T09:00:35.548Z,18.06
2016-09-20T09:01:35.849Z,18.09
2016-09-20T09:02:35.288Z,18.22
2016-09-20T09:03:35.732Z,18.34
2016-09-20T09:04:35.484Z,18.17
2016-09-20T09:05:35.385Z,18.24
2016-09-20T09:06:35.257Z,18.21
2016-09-20T09:07:35.117Z,18.17
2016-09-20T09:08:35.982Z,18.24
2016-09-20T09:09:34.967Z,18.12
2016-09-20T09:10:35.532Z,18.28
2016-09-20T09:11:34.852Z,18.33
2016-09-20T09:12:35.091Z,18.39
2016-09-20T09:13:34.687Z,18.37
2016-09-20T09:14:34.421Z,18.47
2016-09-20T09:15:34.732Z,18.4
2016-09-20T09:16:34.336Z,18.44
2016-09-20T09:17:34.564Z,18.39
2016-09-20T09:18:34.096Z,18.43
2016-09-20T09:19:34.360Z,18.46
2016-09-20T09:20:34.657Z,18.49
2016-09-20T09:21:34.064Z,18.47
2016-09-20T09:22:34.076Z,18.47
2016-09-20T09:23:34.220Z,18.57
2016-09-20T09:24:33.934Z,18.44
2016-09-20T09:25:34.254Z,18.43
2016-09-20T09:26:33.852Z,18.39
2016-09-20T09:27:34.219Z,18.36
2016-09-20T09:28:34.084Z,18.25
2016-09-20T09:29:33.712Z,18.29
2016-09-20T09:30:34.023Z,18.4
2016-09-20T09:31:33.646Z,18.42
2016-09-20T09:32:34.017Z,18.44
2016-09-20T09:33:34.058Z,18.42
2016-09-20T09:34:33.851Z,18.43
2016-09-20T09:35:33.788Z,18.47
2016-09-20T09:36:33.702Z,18.49
2016-09-20T09:37:33.771Z,18.47
2016-09-20T09:38:33.834Z,18.5
2016-09-20T09:39:33.368Z,18.52
2016-09-20T09:40:33.218Z,18.5
2016-09-20T09:41:33.173Z,18.62
2016-09-20T09:42:33.111Z,18.58
2016-09-20T09:43:33.109Z,18.47
2016-09-20T09:44:33.557Z,18.49
2016-09-20T09:45:33.391Z,18.58
2016-09-20T09:46:33.696Z,18.57
2016-09-20T09:47:33.283Z,18.49
2016-09-20T09:48:33.391Z,18.42
2016-09-20T09:49:33.775Z,18.42
2016-09-20T09:50:33.383Z,18.42
2016-09-20T09:51:32.997Z,18.33
2016-09-20T09:52:32.834Z,18.33
2016-09-20T09:53:33.124Z,18.31
2016-09-20T09:54:32.544Z,18.29
2016-09-20T09:55:32.801Z,18.29
2016-09-20T09:56:32.830Z,18.36
2016-09-20T09:57:32.740Z,18.49
2016-09-20T09:58:32.380Z,18.54
2016-09-20T09:59:32.652Z,18.59
2016-09-20T10:00:32.512Z,18.68
2016-09-20T10:01:32.601Z,18.68
2016-09-20T10:02:33.868Z,18.7
2016-09-20T10:03:33.371Z,18.64
2016-09-20T10:04:32.385Z,18.52
2016-09-20T10:05:32.964Z,18.49
2016-09-20T10:06:32.513Z,18.42
2016-09-20T10:07:32.633Z,18.37
2016-09-20T10:08:32.879Z,18.4
2016-09-20T10:09:32.146Z,18.37
2016-09-20T10:10:32.292Z,18.31
2016-09-20T10:11:32.259Z,18.28
2016-09-20T10:12:32.246Z,18.27
2016-09-20T10:13:31.881Z,18.39
2016-09-20T10:14:32.147Z,18.4
2016-09-20T10:15:31.964Z,18.46
2016-09-20T10:16:31.752Z,18.42
2016-09-20T10:17:31.808Z,18.4
2016-09-20T10:18:31.737Z,18.37
2016-09-20T10:19:31.952Z,18.49
2016-09-20T10:20:31.664Z,18.49
2016-09-20T10:21:31.781Z,18.46
2016-09-20T10:22:30.936Z,18.54
2016-09-20T10:23:31.527Z,18.44
2016-09-20T10:24:31.459Z,18.49
2016-09-20T10:25:31.452Z,18.43
2016-09-20T10:26:31.401Z,18.42
2016-09-20T10:27:31.308Z,18.42
2016-09-20T10:28:31.295Z,18.39
2016-09-20T10:29:31.345Z,18.36
2016-09-20T10:30:31.214Z,18.37
2016-09-20T10:31:31.229Z,18.49
2016-09-20T10:32:31.157Z,18.5
2016-09-20T10:33:31.048Z,18.44
2016-09-20T10:34:31.194Z,18.39
2016-09-20T10:35:31.012Z,18.27
2016-09-20T10:36:30.610Z,18.27
2016-09-20T10:37:30.238Z,18.31
2016-09-20T10:38:30.820Z,18.39
2016-09-20T10:39:30.968Z,18.43
2016-09-20T10:40:30.473Z,18.47
2016-09-20T10:41:30.647Z,18.57
2016-09-20T10:42:30.658Z,18.52
2016-09-20T10:43:30.575Z,18.61
2016-09-20T10:44:29.897Z,18.65
2016-09-20T10:45:29.882Z,18.65
2016-09-20T10:46:30.446Z,18.61
2016-09-20T10:47:30.407Z,18.64
2016-09-20T10:48:29.911Z,18.54
2016-09-20T10:49:30.305Z,18.57
2016-09-20T10:50:29.927Z,18.58
2016-09-20T10:51:30.179Z,18.68
2016-09-20T10:52:30.151Z,18.67
2016-09-20T10:53:29.855Z,18.67
2016-09-20T10:54:29.792Z,18.67
2016-09-20T10:55:30.083Z,18.65
2016-09-20T10:56:30.087Z,18.73
2016-09-20T10:57:29.853Z,18.74
2016-09-20T10:58:29.865Z,18.84
2016-09-20T10:59:29.783Z,18.84
2016-09-20T11:00:29.781Z,18.77
2016-09-20T11:01:29.442Z,18.8
2016-09-20T11:02:29.674Z,18.74
2016-09-20T11:03:29.335Z,18.84
2016-09-20T11:04:29.600Z,18.77
2016-09-20T11:05:29.588Z,18.83
2016-09-20T11:06:29.507Z,18.82
2016-09-20T11:07:29.734Z,18.74
2016-09-20T11:08:29.092Z,18.76
2016-09-20T11:09:29.366Z,18.8
2016-09-20T11:10:29.316Z,18.8
2016-09-20T11:11:29.242Z,18.82
2016-09-20T11:12:29.207Z,18.77
2016-09-20T11:13:29.206Z,18.87
2016-09-20T11:14:28.848Z,18.77
2016-09-20T11:15:29.067Z,18.9
2016-09-20T11:16:29.097Z,18.83
2016-09-20T11:17:28.667Z,18.95
2016-09-20T11:18:28.945Z,18.92
2016-09-20T11:19:29.060Z,18.95
2016-09-20T11:20:28.834Z,18.92
2016-09-20T11:21:28.806Z,18.95
2016-09-20T11:22:28.751Z,19.01
2016-09-20T11:23:28.748Z,18.98
2016-09-20T11:24:28.677Z,18.92
2016-09-20T11:25:28.609Z,19.08
2016-09-20T11:26:28.752Z,18.95
2016-09-20T11:27:28.553Z,18.98
2016-09-20T11:28:28.264Z,18.98
2016-09-20T11:29:28.424Z,19.14
2016-09-20T11:30:28.095Z,19.21
2016-09-20T11:31:28.014Z,19.24
2016-09-20T11:32:28.572Z,19.31
2016-09-20T11:33:28.224Z,19.4
2016-09-20T11:34:28.409Z,19.28
2016-09-20T11:35:28.043Z,19.38
2016-09-20T11:36:28.111Z,19.51
2016-09-20T11:37:28.076Z,19.54
2016-09-20T11:38:28.481Z,19.43
2016-09-20T11:39:27.964Z,19.43
2016-09-20T11:40:27.945Z,19.43
2016-09-20T11:41:27.581Z,19.32
2016-09-20T11:42:28.063Z,19.38
2016-09-20T11:43:27.476Z,19.38
2016-09-20T11:44:27.741Z,19.25
2016-09-20T11:45:27.926Z,19.36
2016-09-20T11:46:27.346Z,19.31
2016-09-20T11:47:27.597Z,19.42
2016-09-20T11:48:27.598Z,19.38
2016-09-20T11:49:27.565Z,19.39
2016-09-20T11:50:27.238Z,19.48
2016-09-20T11:51:27.408Z,19.61
2016-09-20T11:52:27.179Z,19.46
2016-09-20T11:53:27.543Z,19.51
2016-09-20T11:54:27.015Z,19.53
2016-09-20T11:55:27.233Z,19.5
2016-09-20T11:56:27.188Z,19.43
2016-09-20T11:57:27.144Z,19.48
2016-09-20T11:58:27.335Z,19.42
2016-09-20T11:59:27.240Z,19.4
2016-09-20T12:00:27.125Z,19.5
2016-09-20T12:01:26.940Z,19.48
2016-09-20T12:02:26.590Z,19.51
2016-09-20T12:03:26.897Z,19.58
2016-09-20T12:04:26.515Z,19.69
2016-09-20T12:05:27.196Z,19.58
2016-09-20T12:06:26.972Z,19.58
2016-09-20T12:07:26.719Z,19.48
2016-09-20T12:08:26.647Z,19.57
2016-09-20T12:09:26.590Z,19.47
2016-09-20T12:10:26.577Z,19.42
2016-09-20T12:11:26.678Z,19.58
2016-09-20T12:12:26.510Z,19.54
2016-09-20T12:13:26.474Z,19.57
2016-09-20T12:14:26.421Z,19.63
2016-09-20T12:15:26.045Z,19.68
2016-09-20T12:16:26.561Z,19.69
2016-09-20T12:17:25.906Z,19.68
2016-09-20T12:18:26.163Z,19.65
2016-09-20T12:19:26.138Z,19.63
2016-09-20T12:20:25.803Z,19.61
2016-09-20T12:21:25.721Z,19.75
2016-09-20T12:22:26.205Z,19.76
2016-09-20T12:23:26.364Z,19.9
2016-09-20T12:24:25.956Z,19.91
2016-09-20T12:25:25.872Z,19.95
2016-09-20T12:26:25.816Z,19.91
2016-09-20T12:27:25.769Z,19.9
2016-09-20T12:28:25.750Z,19.9
2016-09-20T12:29:25.679Z,19.8
2016-09-20T12:30:25.628Z,19.86
2016-09-20T12:31:25.579Z,19.88
2016-09-20T12:32:25.294Z,19.91
2016-09-20T12:33:24.872Z,19.94
2016-09-20T12:34:25.452Z,19.94
2016-09-20T12:35:25.689Z,19.98
2016-09-20T12:36:25.369Z,20.03
2016-09-20T12:37:25.317Z,20.12
2016-09-20T12:38:25.284Z,20.09
2016-09-20T12:39:25.453Z,20
2016-09-20T12:40:25.180Z,19.98
2016-09-20T12:41:25.023Z,20
2016-09-20T12:42:25.096Z,20.03
2016-09-20T12:43:25.441Z,20.09
2016-09-20T12:44:24.892Z,20.12
2016-09-20T12:45:24.843Z,20.2
2016-09-20T12:46:24.922Z,20.2
2016-09-20T12:47:25.267Z,20.23
2016-09-20T12:48:24.841Z,20.18
2016-09-20T12:49:24.459Z,20.06
2016-09-20T12:50:24.722Z,20.12
2016-09-20T12:51:24.681Z,20.15
2016-09-20T12:52:24.634Z,20.09
2016-09-20T12:53:24.582Z,20.18
2016-09-20T12:54:24.562Z,20.13
2016-09-20T12:55:24.196Z,20.09